Hlavní strana
METAR-TAF:

METAR-TAF

Letiště :

Reschenský průsmyk, Itálie

zeměpisná šířka: 46-50N, zeměpisná délka: 010-30E, výška: 1800 m

Aktuální stav počasí

Zpráva byla vytvořena před 1 hodinou a 9 minutami, v 12:55 UTC
Severoseverovýchodní vítr 6 kt s nárazy do 17 kt
Teplota 2°C
Vlhkost vzduchu 55%
Tlak 1005 hPa
Viditelnost 10 km a více
Skoro jasno ve výšce 2000 ft

METAR: LIVE 241255Z 03006G17KT 9999 FEW020 02/M06 Q1005 RMK FEW VIS MIN 9999

Čas: 15:04 (14:04 UTC)


TAF: chybějící

Stav a předpovědi počasí z více než 4 000 letišť (zprávy METAR a TAF).

Červené a žluté tečky na mapě představují dostupné meteorologické stanice.

Když kurzor umístíte na tečku, zobrazí se název stanice.

Pak kliknutím zobrazíte stav a předpověď počasí.

Chcete-li změnit mapu, kliknutím na zelené tlačítko se znaménkem +mapu přiblížíte, kliknutím na zelené tlačítko se znaménkem – mapu oddálíte a kliknutím na zelené šipky přejdete na sousední mapy.


METAR-TAF: